Decoded Metar for UUYY (SYKTYVKAR in RUSSIA) (IATA:SCW) | Meteo·Mobile Aviation Weather
aviador You're here:

UUYY Decoded Metar

SYKTYVKAR in RUSSIA
Report Time2019-02-22 14:30:00
UTC Time2019-02-22 14:44:33
Flight Rules vfr VFR
Wind020° at 10 kt
W.Decomp.*RWY 01: 9.9 kt HW 1 kt LCW
W.Rank020° ranks 5
Current wind is above 020° avg. (6.9)
Visibility9999 m
Phenomena:N/A
Clouds:N/A
Expected CloudBase > 2,000 ft AGL from Temp-Dew spread
CeilingNone
Temp-13°C (ISA -27)
Dew Point-18°C (66% RH)
AAT-20.1°C
QNH1020 hPa
Density Alt-3,255 ft
Elevation390 ft
Report Wrong Elevation
Raw Report
UUYY 221430Z 02005MPS CAVOK M13/M18 Q1020 R36/450245 NOSIG RMK
QFE756/1008=

Extra information for UUYY:More info

Metar Taf Metar & Taf Last 4 Metars F.Rules Stats Wind Profile Meteogram Temp Stats Airport Information Weather charts Add Link Nearby VenuesMetar ALERT Operation Metar Decoded Social comments